Terminal Aerodrome Forecast
Issued by NWS Rapid City, SD

Home | Current Version | Previous Version | Text Only | Print | Product List | Glossary Off
Versions: 1 2 3 4 5 6 7 8 9 10 11 12 13 14 15 16 17 18 19

000
FTUS43 KUNR 260520
TAFRAP
TAF
KRAP 260520Z 2606/2706 36004KT 4SM BR OVC020
      TEMPO 2606/2610 1SM BR BKN009
     FM261000 VRB05KT 1/2SM FG VV002
     FM261600 15010KT P6SM SCT012 SCT025 BKN040=

USA.gov is the U.S. government's official web portal to all federal, state and local government web resources and services.